Terminal Aerodrome Forecast
Issued by NWS

Home | Current Version | Previous Version | Text Only | Print | Product List | Glossary On
Versions: 1 2 3 4 5 6 7 8 9 10 11 12 13 14 15 16 17 18 19 20 21 22 23 24 25 26 27 28 29 30 31 32 33 34 35 36 37 38 39 40 41 42 43 44 45 46 47 48 49 50
697
FTUS43 KLOT 220435 AAA
TAFGYY
TAF AMD
KGYY 220435Z 2205/2224 00000KT 2SM BR BCFG OVC250
      TEMPO 2205/2207 1/4SM FG VV002
     FM220700 00000KT 1/4SM FG VV002
     FM221600 02008KT 3SM BR OVC006
     FM221900 01010KT P6SM OVC015=

USA.gov is the U.S. government's official web portal to all federal, state and local government web resources and services.